Time;durP1;ratioP1;P1;durP2;ratioP2;P2;SDS_P1;SDS_P2;PMS_P1;PMS_P2;Temp;Humidity;BMP_temperature;BMP_pressure;BME280_temperature;BME280_humidity;BME280_pressure;Samples;Min_cycle;Max_cycle;Signal;HPM_P1;HPM_P2
2022/08/16 00:01:04;;;;;;;14.43;13.18;;;;;;;;;;5093078;28;20111;-86
2022/08/16 00:03:31;;;;;;;13.50;12.30;;;;;;;;;;5092976;28;20024;-89
2022/08/16 00:05:57;;;;;;;11.90;10.80;;;;;;;;;;5093075;28;20115;-86
2022/08/16 00:08:23;;;;;;;13.65;12.55;;;;;;;;;;5093007;28;20020;-88
2022/08/16 00:10:49;;;;;;;13.18;11.98;;;;;;;;;;5093398;28;20028;-87
2022/08/16 00:13:15;;;;;;;13.38;11.95;;;;;;;;;;5095005;28;20028;-87
2022/08/16 00:15:43;;;;;;;14.45;13.05;;;;;;;;;;5093222;28;20140;-86
2022/08/16 00:18:18;;;;;;;12.85;11.75;;;;;;;;;;5095487;28;20103;-88
2022/08/16 00:20:45;;;;;;;13.55;12.35;;;;;;;;;;5095584;28;20499;-86
2022/08/16 00:23:12;;;;;;;13.60;12.20;;;;;;;;;;5094756;28;20475;-86
2022/08/16 00:25:38;;;;;;;13.88;12.55;;;;;;;;;;5096106;28;20467;-87
2022/08/16 00:28:05;;;;;;;13.90;12.50;;;;;;;;;;5095980;28;20024;-89
2022/08/16 00:30:31;;;;;;;13.23;12.00;;;;;;;;;;5096216;28;20029;-85
2022/08/16 00:32:59;;;;;;;12.90;11.60;;;;;;;;;;5093827;28;20032;-87
2022/08/16 00:35:27;;;;;;;13.95;12.63;;;;;;;;;;5092563;28;20031;-86
2022/08/16 00:37:55;;;;;;;12.32;11.23;;;;;;;;;;5093818;28;20099;-86
2022/08/16 00:40:39;;;;;;;12.70;11.60;;;;;;;;;;5093842;28;20032;-87
2022/08/16 00:43:05;;;;;;;;;;;;;;;;;;5092811;28;20070;-90
2022/08/16 00:45:57;;;;;;;14.27;12.77;;;;;;;;;;5092169;28;19904;-88
2022/08/16 00:48:24;;;;;;;12.60;11.32;;;;;;;;;;5087558;28;20399;-87
2022/08/16 00:50:50;;;;;;;15.35;12.63;;;;;;;;;;5092244;28;20071;-88
2022/08/16 00:53:20;;;;;;;12.02;10.88;;;;;;;;;;5091808;28;20035;-89
2022/08/16 00:55:48;;;;;;;13.68;12.30;;;;;;;;;;5092118;28;20028;-88
2022/08/16 00:58:15;;;;;;;13.15;11.95;;;;;;;;;;5091803;28;20034;-89
2022/08/16 01:00:41;;;;;;;12.95;11.68;;;;;;;;;;5092009;28;20048;-88
2022/08/16 01:03:09;;;;;;;12.95;11.75;;;;;;;;;;5093133;28;20027;-88
2022/08/16 01:05:36;;;;;;;13.02;11.82;;;;;;;;;;5093230;28;20027;-88
2022/08/16 01:08:03;;;;;;;13.50;12.10;;;;;;;;;;5091906;28;20161;-89
2022/08/16 01:10:30;;;;;;;13.73;12.60;;;;;;;;;;5091720;28;20067;-88
2022/08/16 01:12:57;;;;;;;12.52;11.43;;;;;;;;;;5091875;28;20115;-88
2022/08/16 01:15:23;;;;;;;13.25;12.02;;;;;;;;;;5091758;28;20035;-88
2022/08/16 01:17:50;;;;;;;12.60;11.50;;;;;;;;;;5091867;28;20027;-88
2022/08/16 01:20:18;;;;;;;15.15;13.50;;;;;;;;;;5091452;28;20070;-88
2022/08/16 01:22:55;;;;;;;13.93;12.43;;;;;;;;;;5091784;28;20031;-88
2022/08/16 01:25:25;;;;;;;14.35;13.05;;;;;;;;;;5091633;28;20024;-88
2022/08/16 01:27:53;;;;;;;13.65;12.35;;;;;;;;;;5091517;28;20028;-88
2022/08/16 01:30:38;;;;;;;14.80;13.40;;;;;;;;;;5092709;28;20024;-88
2022/08/16 01:33:05;;;;;;;14.57;13.27;;;;;;;;;;5092744;28;20028;-87
2022/08/16 01:35:35;;;;;;;13.15;11.95;;;;;;;;;;5091463;28;20434;-88
2022/08/16 01:38:21;;;;;;;13.70;12.52;;;;;;;;;;5091704;28;20475;-88
2022/08/16 01:40:48;;;;;;;14.43;12.90;;;;;;;;;;5093835;28;20051;-89
2022/08/16 01:43:14;;;;;;;13.70;12.50;;;;;;;;;;5091432;28;20020;-90
2022/08/16 01:45:40;;;;;;;13.88;12.52;;;;;;;;;;5091268;28;20073;-89
2022/08/16 01:48:07;;;;;;;13.38;12.18;;;;;;;;;;5091275;28;20080;-87
2022/08/16 01:50:33;;;;;;;12.85;11.65;;;;;;;;;;5091206;28;20024;-89
2022/08/16 01:53:00;;;;;;;13.57;12.38;;;;;;;;;;5091474;28;20036;-87
2022/08/16 01:55:26;;;;;;;13.35;12.07;;;;;;;;;;5092580;28;20032;-88
2022/08/16 01:57:52;;;;;;;13.45;12.15;;;;;;;;;;5091315;28;20020;-89
2022/08/16 02:00:18;;;;;;;14.00;12.70;;;;;;;;;;5091210;28;20047;-90
2022/08/16 02:02:45;;;;;;;13.13;11.95;;;;;;;;;;5091012;28;20030;-90
2022/08/16 02:05:12;;;;;;;13.43;12.13;;;;;;;;;;5092532;28;20024;-88
2022/08/16 02:07:38;;;;;;;14.35;12.93;;;;;;;;;;5092291;28;20051;-89
2022/08/16 02:10:06;;;;;;;14.30;12.52;;;;;;;;;;5091241;28;20483;-89
2022/08/16 02:12:33;;;;;;;14.48;13.00;;;;;;;;;;5092217;28;20364;-88
2022/08/16 02:14:59;;;;;;;15.15;13.68;;;;;;;;;;5091437;28;20498;-89
2022/08/16 02:17:25;;;;;;;15.73;14.13;;;;;;;;;;5091107;28;20504;-88
2022/08/16 02:19:52;;;;;;;13.90;12.60;;;;;;;;;;5091346;28;20028;-89
2022/08/16 02:22:20;;;;;;;15.05;13.57;;;;;;;;;;5092720;28;20020;-88
2022/08/16 02:24:46;;;;;;;14.80;13.50;;;;;;;;;;5091098;28;20028;-88
2022/08/16 02:27:13;;;;;;;15.00;13.45;;;;;;;;;;5091024;28;20491;-89
2022/08/16 02:29:40;;;;;;;14.55;13.15;;;;;;;;;;5090802;28;20050;-88
2022/08/16 02:32:07;;;;;;;14.60;13.30;;;;;;;;;;5091000;28;20491;-89
2022/08/16 02:34:34;;;;;;;14.07;12.82;;;;;;;;;;5090763;28;20028;-90
2022/08/16 02:37:00;;;;;;;14.52;13.23;;;;;;;;;;5092301;28;20067;-87
2022/08/16 02:39:26;;;;;;;14.05;12.77;;;;;;;;;;5090776;28;20031;-87
2022/08/16 02:41:53;;;;;;;13.63;12.30;;;;;;;;;;5090496;28;20487;-87
2022/08/16 02:44:19;;;;;;;15.20;13.20;;;;;;;;;;5092222;28;20048;-88
2022/08/16 02:46:46;;;;;;;15.20;13.80;;;;;;;;;;5091272;28;20062;-86
2022/08/16 02:49:12;;;;;;;17.92;16.10;;;;;;;;;;5091506;28;20463;-89
2022/08/16 02:51:39;;;;;;;15.93;14.32;;;;;;;;;;5093944;28;20032;-88
2022/08/16 02:54:06;;;;;;;16.20;14.70;;;;;;;;;;5095812;28;20102;-85
2022/08/16 02:56:33;;;;;;;16.48;14.95;;;;;;;;;;5094519;28;20031;-88
2022/08/16 02:58:59;;;;;;;15.93;14.32;;;;;;;;;;5095475;28;20386;-88
2022/08/16 03:01:27;;;;;;;15.60;14.00;;;;;;;;;;5095596;28;20051;-89
2022/08/16 03:03:54;;;;;;;16.20;13.95;;;;;;;;;;5094179;28;20032;-88
2022/08/16 03:06:21;;;;;;;15.13;13.82;;;;;;;;;;5094443;28;20453;-90
2022/08/16 03:08:48;;;;;;;16.33;14.80;;;;;;;;;;5094201;28;20052;-90
2022/08/16 03:11:16;;;;;;;17.20;15.10;;;;;;;;;;5094264;28;20040;-86
2022/08/16 03:13:43;;;;;;;16.60;14.75;;;;;;;;;;5093953;28;20119;-87
2022/08/16 03:16:09;;;;;;;15.02;13.65;;;;;;;;;;5095235;28;20028;-88
2022/08/16 03:18:35;;;;;;;16.40;14.82;;;;;;;;;;5095137;28;20024;-90
2022/08/16 03:21:01;;;;;;;15.65;14.07;;;;;;;;;;5094022;28;20048;-89
2022/08/16 03:23:28;;;;;;;16.95;15.43;;;;;;;;;;5094069;28;20052;-90
2022/08/16 03:25:54;;;;;;;16.00;14.50;;;;;;;;;;5093837;28;20028;-88
2022/08/16 03:28:20;;;;;;;15.13;13.48;;;;;;;;;;5094004;28;20101;-90
2022/08/16 03:30:46;;;;;;;15.38;13.88;;;;;;;;;;5093654;28;20483;-88
2022/08/16 03:33:12;;;;;;;14.80;13.40;;;;;;;;;;5093878;28;20036;-89
2022/08/16 03:35:39;;;;;;;15.13;13.63;;;;;;;;;;5093809;28;20031;-89
2022/08/16 03:38:07;;;;;;;16.13;14.52;;;;;;;;;;5093757;28;20487;-89
2022/08/16 03:40:34;;;;;;;15.05;13.55;;;;;;;;;;5093717;28;20028;-86
2022/08/16 03:43:01;;;;;;;17.13;14.55;;;;;;;;;;5094807;28;20027;-87
2022/08/16 03:45:27;;;;;;;18.42;15.10;;;;;;;;;;5093923;28;20486;-88
2022/08/16 03:47:53;;;;;;;15.23;13.50;;;;;;;;;;5094562;28;20051;-86
2022/08/16 03:50:19;;;;;;;15.00;13.60;;;;;;;;;;5094663;28;20103;-87
2022/08/16 03:52:46;;;;;;;15.65;14.10;;;;;;;;;;5094504;28;20165;-88
2022/08/16 03:55:12;;;;;;;17.45;14.52;;;;;;;;;;5094670;28;20085;-87
2022/08/16 03:57:38;;;;;;;16.65;15.05;;;;;;;;;;5094342;28;20020;-88
2022/08/16 04:00:21;;;;;;;18.65;15.30;;;;;;;;;;5092794;28;20025;-86
2022/08/16 04:02:53;;;;;;;17.92;16.13;;;;;;;;;;5094343;28;20035;-86
2022/08/16 04:05:19;;;;;;;16.48;14.82;;;;;;;;;;5094904;28;20098;-87
2022/08/16 04:07:45;;;;;;;27.02;24.33;;;;;;;;;;5094048;28;20024;-88
2022/08/16 04:10:12;;;;;;;42.17;37.70;;;;;;;;;;5094498;28;20028;-88
2022/08/16 04:12:55;;;;;;;18.27;16.10;;;;;;;;;;5095940;28;20453;-88
2022/08/16 04:15:22;;;;;;;18.30;16.25;;;;;;;;;;5091853;28;20032;-88
2022/08/16 04:17:48;;;;;;;17.80;15.57;;;;;;;;;;5094363;28;20028;-90
2022/08/16 04:20:15;;;;;;;16.35;14.68;;;;;;;;;;5093679;28;20028;-86
2022/08/16 04:22:44;;;;;;;21.38;19.27;;;;;;;;;;5092724;28;20024;-89
2022/08/16 04:25:11;;;;;;;17.90;16.17;;;;;;;;;;5093482;28;20111;-86
2022/08/16 04:27:38;;;;;;;15.85;14.30;;;;;;;;;;5093901;28;20111;-86
2022/08/16 04:30:08;;;;;;;16.70;15.10;;;;;;;;;;5092353;28;20020;-83
2022/08/16 04:32:34;;;;;;;18.30;15.25;;;;;;;;;;5093344;28;20107;-83
2022/08/16 04:35:00;;;;;;;17.92;15.38;;;;;;;;;;5093685;28;20028;-84
2022/08/16 04:37:26;;;;;;;16.70;15.15;;;;;;;;;;5092297;28;20127;-84
2022/08/16 04:39:52;;;;;;;17.00;15.25;;;;;;;;;;5093540;28;20038;-84
2022/08/16 04:42:18;;;;;;;19.73;15.57;;;;;;;;;;5093395;28;20024;-84
2022/08/16 04:44:45;;;;;;;17.08;15.35;;;;;;;;;;5093089;28;20514;-84
2022/08/16 04:47:11;;;;;;;19.13;17.25;;;;;;;;;;5093237;28;20059;-83
2022/08/16 04:49:38;;;;;;;18.13;16.38;;;;;;;;;;5091829;28;20038;-83
2022/08/16 04:52:04;;;;;;;43.20;38.58;;;;;;;;;;5093101;28;20044;-84
2022/08/16 04:54:30;;;;;;;29.00;25.25;;;;;;;;;;5093066;28;20360;-83
2022/08/16 04:56:56;;;;;;;18.38;16.48;;;;;;;;;;5093227;28;20550;-83
2022/08/16 04:59:23;;;;;;;17.30;15.23;;;;;;;;;;5092985;28;20035;-83
2022/08/16 05:01:55;;;;;;;15.43;13.93;;;;;;;;;;5092854;28;20032;-83
2022/08/16 05:04:21;;;;;;;17.20;14.50;;;;;;;;;;5091792;28;20032;-83
2022/08/16 05:06:47;;;;;;;15.48;13.88;;;;;;;;;;5092994;28;20025;-83
2022/08/16 05:09:13;;;;;;;15.35;13.95;;;;;;;;;;5093025;28;20024;-82
2022/08/16 05:11:39;;;;;;;17.23;15.50;;;;;;;;;;5092548;28;20028;-83
2022/08/16 05:14:06;;;;;;;15.38;13.88;;;;;;;;;;5090876;28;20039;-83
2022/08/16 05:16:32;;;;;;;16.45;14.75;;;;;;;;;;5092600;28;20540;-85
2022/08/16 05:18:59;;;;;;;27.17;24.35;;;;;;;;;;5092716;28;20036;-84
2022/08/16 05:21:27;;;;;;;29.05;26.10;;;;;;;;;;5092469;28;20024;-83
2022/08/16 05:23:53;;;;;;;19.05;17.17;;;;;;;;;;5089075;28;20024;-83
2022/08/16 05:26:19;;;;;;;15.88;14.48;;;;;;;;;;5078095;28;20028;-85
2022/08/16 05:28:45;;;;;;;20.70;14.75;;;;;;;;;;5092105;28;20036;-86
2022/08/16 05:31:11;;;;;;;17.10;14.05;;;;;;;;;;5092675;28;20035;-84
2022/08/16 05:33:38;;;;;;;15.93;14.32;;;;;;;;;;5083666;28;20105;-83
2022/08/16 05:36:04;;;;;;;25.40;22.83;;;;;;;;;;5082879;28;20033;-84
2022/08/16 05:38:30;;;;;;;19.38;17.30;;;;;;;;;;5075775;28;20529;-81
2022/08/16 05:40:57;;;;;;;16.98;15.27;;;;;;;;;;5097032;28;20479;-81
2022/08/16 05:43:23;;;;;;;16.20;14.60;;;;;;;;;;5093225;28;20483;-86
2022/08/16 05:45:50;;;;;;;17.17;15.43;;;;;;;;;;5091063;28;20028;-81
2022/08/16 05:48:17;;;;;;;16.73;14.90;;;;;;;;;;5091971;28;20055;-83
2022/08/16 05:50:43;;;;;;;16.58;14.88;;;;;;;;;;5089564;28;20032;-82
2022/08/16 05:53:09;;;;;;;17.10;15.30;;;;;;;;;;5085509;28;20064;-82
2022/08/16 05:55:37;;;;;;;16.55;14.85;;;;;;;;;;5083337;28;20043;-83
2022/08/16 05:58:04;;;;;;;18.73;14.70;;;;;;;;;;5079092;28;20475;-83
2022/08/16 06:00:30;;;;;;;19.95;16.10;;;;;;;;;;5080317;28;20020;-85
2022/08/16 06:02:56;;;;;;;28.67;25.73;;;;;;;;;;5088187;28;20038;-82
2022/08/16 06:05:23;;;;;;;43.90;39.40;;;;;;;;;;5089940;28;20022;-84
2022/08/16 06:07:49;;;;;;;39.83;33.25;;;;;;;;;;5079056;28;20039;-84
2022/08/16 06:10:15;;;;;;;36.83;30.20;;;;;;;;;;5090591;28;20017;-82
2022/08/16 06:12:41;;;;;;;24.98;22.30;;;;;;;;;;5089885;28;20077;-83
2022/08/16 06:15:12;;;;;;;23.15;20.45;;;;;;;;;;5078465;28;20036;-84
2022/08/16 06:17:38;;;;;;;48.95;28.55;;;;;;;;;;5072191;28;20041;-82
2022/08/16 06:20:05;;;;;;;68.85;31.48;;;;;;;;;;5082700;28;20016;-83
2022/08/16 06:22:31;;;;;;;52.08;25.48;;;;;;;;;;5091597;28;20028;-82
2022/08/16 06:24:58;;;;;;;79.05;40.00;;;;;;;;;;5081762;28;20124;-83
2022/08/16 06:27:24;;;;;;;49.08;29.90;;;;;;;;;;5092861;28;20028;-83
2022/08/16 06:29:50;;;;;;;136.00;61.30;;;;;;;;;;5088213;28;20036;-80
2022/08/16 06:32:16;;;;;;;113.68;52.75;;;;;;;;;;5079315;28;20127;-82
2022/08/16 06:34:42;;;;;;;70.13;36.20;;;;;;;;;;5076410;28;20478;-82
2022/08/16 06:37:09;;;;;;;63.78;34.10;;;;;;;;;;5090324;28;20078;-85
2022/08/16 06:39:35;;;;;;;49.03;30.67;;;;;;;;;;5080541;28;20368;-83
2022/08/16 06:42:01;;;;;;;55.65;28.20;;;;;;;;;;5087747;28;20070;-83
2022/08/16 06:44:27;;;;;;;88.38;38.65;;;;;;;;;;5094446;28;20071;-83
2022/08/16 06:46:54;;;;;;;102.35;45.03;;;;;;;;;;5092554;28;20044;-83
2022/08/16 06:49:20;;;;;;;76.97;36.00;;;;;;;;;;5083846;28;20028;-84
2022/08/16 06:51:46;;;;;;;77.20;38.67;;;;;;;;;;5093575;28;20078;-83
2022/08/16 06:54:12;;;;;;;36.03;23.27;;;;;;;;;;5076292;28;20432;-82
2022/08/16 06:56:38;;;;;;;30.98;21.77;;;;;;;;;;5074653;28;20472;-81
2022/08/16 06:59:04;;;;;;;27.35;18.23;;;;;;;;;;5086040;28;20036;-83
2022/08/16 07:01:31;;;;;;;17.25;15.52;;;;;;;;;;5086224;28;20024;-83
2022/08/16 07:03:57;;;;;;;16.73;15.02;;;;;;;;;;5094497;28;20034;-85
2022/08/16 07:06:23;;;;;;;17.10;15.30;;;;;;;;;;5082923;28;20044;-83
2022/08/16 07:08:50;;;;;;;16.80;14.57;;;;;;;;;;5075434;28;20028;-83
2022/08/16 07:11:16;;;;;;;16.02;14.38;;;;;;;;;;5074330;28;20040;-82
2022/08/16 07:13:42;;;;;;;15.45;13.88;;;;;;;;;;5084297;28;20029;-85
2022/08/16 07:16:13;;;;;;;14.50;13.15;;;;;;;;;;5082102;28;20510;-84
2022/08/16 07:18:40;;;;;;;16.98;15.23;;;;;;;;;;5092105;28;20032;-83
2022/08/16 07:21:08;;;;;;;25.98;19.33;;;;;;;;;;5094555;28;20082;-81
2022/08/16 07:23:36;;;;;;;51.60;25.33;;;;;;;;;;5086672;28;20442;-82
2022/08/16 07:26:03;;;;;;;91.70;40.05;;;;;;;;;;5080115;28;20040;-85
2022/08/16 07:28:29;;;;;;;148.52;60.28;;;;;;;;;;5094636;28;20046;-84
2022/08/16 07:30:56;;;;;;;70.60;34.53;;;;;;;;;;5094132;28;20111;-82
2022/08/16 07:33:22;;;;;;;37.38;23.15;;;;;;;;;;5092790;28;20024;-84
2022/08/16 07:35:48;;;;;;;28.38;18.90;;;;;;;;;;5087398;28;20081;-82
2022/08/16 07:38:14;;;;;;;20.45;16.05;;;;;;;;;;5074973;28;20056;-82
2022/08/16 07:40:41;;;;;;;23.90;18.25;;;;;;;;;;5093521;28;20020;-83
2022/08/16 07:43:07;;;;;;;21.38;16.48;;;;;;;;;;5090740;28;20063;-83
2022/08/16 07:45:33;;;;;;;37.90;33.97;;;;;;;;;;5074476;28;20020;-82
2022/08/16 07:47:59;;;;;;;43.10;39.03;;;;;;;;;;5084250;28;20495;-80
2022/08/16 07:50:26;;;;;;;31.33;28.48;;;;;;;;;;5074005;28;20423;-84
2022/08/16 07:52:52;;;;;;;41.10;28.45;;;;;;;;;;5081782;28;20036;-82
2022/08/16 07:55:18;;;;;;;28.60;21.63;;;;;;;;;;5078154;28;20043;-82
2022/08/16 07:57:44;;;;;;;94.75;41.97;;;;;;;;;;5080853;28;20464;-82
2022/08/16 08:00:11;;;;;;;82.95;38.38;;;;;;;;;;5074370;28;20064;-81
2022/08/16 08:02:38;;;;;;;61.38;30.92;;;;;;;;;;5072785;28;20120;-80
2022/08/16 08:05:04;;;;;;;81.75;37.72;;;;;;;;;;5079455;28;20103;-80
2022/08/16 08:07:30;;;;;;;29.83;19.23;;;;;;;;;;5082792;28;20024;-80
2022/08/16 08:09:58;;;;;;;44.08;26.58;;;;;;;;;;5082059;28;20032;-80
2022/08/16 08:12:24;;;;;;;28.55;20.00;;;;;;;;;;5085064;28;20783;-81
2022/08/16 08:14:50;;;;;;;26.02;19.98;;;;;;;;;;5076143;28;20598;-81
2022/08/16 08:17:17;;;;;;;28.65;20.15;;;;;;;;;;5081764;28;20043;-82
2022/08/16 08:19:44;;;;;;;21.55;17.38;;;;;;;;;;5071788;28;20060;-83
2022/08/16 08:22:10;;;;;;;18.42;16.08;;;;;;;;;;5080919;28;20501;-74
2022/08/16 08:24:38;;;;;;;19.92;17.48;;;;;;;;;;5080153;28;20036;-81
2022/08/16 08:27:06;;;;;;;12.55;11.45;;;;;;;;;;5093562;28;20038;-80
2022/08/16 08:29:32;;;;;;;15.93;14.13;;;;;;;;;;5080690;28;20075;-81
2022/08/16 08:31:59;;;;;;;13.88;12.52;;;;;;;;;;5081685;28;20107;-81
2022/08/16 08:34:26;;;;;;;12.88;11.65;;;;;;;;;;5093275;28;20031;-80
2022/08/16 08:36:52;;;;;;;14.25;12.85;;;;;;;;;;5093004;28;20467;-81
2022/08/16 08:39:19;;;;;;;13.15;11.85;;;;;;;;;;5087204;28;20465;-83
2022/08/16 08:41:46;;;;;;;12.75;11.52;;;;;;;;;;5090857;28;20397;-81
2022/08/16 08:44:13;;;;;;;12.23;11.02;;;;;;;;;;5077975;28;20132;-77
2022/08/16 08:46:39;;;;;;;12.20;10.98;;;;;;;;;;5081936;28;20111;-81
2022/08/16 08:49:08;;;;;;;13.07;11.77;;;;;;;;;;5090667;28;20036;-84
2022/08/16 08:51:37;;;;;;;12.90;11.70;;;;;;;;;;5086112;28;20024;-81
2022/08/16 08:54:08;;;;;;;12.13;10.90;;;;;;;;;;5092891;28;20050;-82
2022/08/16 08:56:36;;;;;;;11.88;10.88;;;;;;;;;;5092865;28;20364;-80
2022/08/16 08:59:03;;;;;;;11.10;10.00;;;;;;;;;;5092704;28;20409;-82
2022/08/16 09:01:31;;;;;;;11.63;10.52;;;;;;;;;;5086257;28;20020;-82
2022/08/16 09:03:58;;;;;;;11.93;10.57;;;;;;;;;;5067270;28;20407;-75
2022/08/16 09:06:25;;;;;;;14.40;10.63;;;;;;;;;;5082812;28;20077;-78
2022/08/16 09:08:51;;;;;;;11.80;10.68;;;;;;;;;;5082606;28;20115;-79
2022/08/16 09:11:17;;;;;;;10.50;9.60;;;;;;;;;;5079517;28;20039;-80
2022/08/16 09:13:45;;;;;;;11.90;10.25;;;;;;;;;;5082979;28;20487;-80
2022/08/16 09:16:11;;;;;;;12.82;11.10;;;;;;;;;;5092581;28;20070;-81
2022/08/16 09:18:37;;;;;;;11.73;10.73;;;;;;;;;;5092209;28;20036;-78
2022/08/16 09:21:05;;;;;;;11.02;10.05;;;;;;;;;;5072901;28;20480;-81
2022/08/16 09:23:34;;;;;;;12.05;10.80;;;;;;;;;;5090180;28;20036;-81
2022/08/16 09:26:00;;;;;;;14.88;13.48;;;;;;;;;;5087799;28;20508;-82
2022/08/16 09:28:27;;;;;;;10.77;9.80;;;;;;;;;;5078648;28;20081;-81
2022/08/16 09:30:53;;;;;;;10.20;9.30;;;;;;;;;;5080304;28;20067;-82
2022/08/16 09:33:20;;;;;;;11.63;10.52;;;;;;;;;;5074943;28;20025;-82
2022/08/16 09:35:47;;;;;;;10.65;9.75;;;;;;;;;;5076882;28;20033;-82
2022/08/16 09:38:13;;;;;;;8.82;8.02;;;;;;;;;;5094828;28;20063;-82
2022/08/16 09:40:47;;;;;;;9.23;8.40;;;;;;;;;;5103670;28;20050;-81
2022/08/16 09:43:15;;;;;;;8.05;7.32;;;;;;;;;;5091987;28;20035;-81
2022/08/16 09:45:42;;;;;;;11.05;9.95;;;;;;;;;;5097299;28;20502;-80
2022/08/16 09:48:08;;;;;;;9.05;8.30;;;;;;;;;;5103715;28;20047;-78
2022/08/16 09:50:35;;;;;;;9.40;8.45;;;;;;;;;;5102082;28;20690;-80
2022/08/16 09:53:02;;;;;;;8.38;7.65;;;;;;;;;;5102885;28;20471;-81
2022/08/16 09:55:28;;;;;;;9.45;8.55;;;;;;;;;;5098340;28;20028;-80
2022/08/16 09:57:55;;;;;;;8.60;7.90;;;;;;;;;;5073703;28;20402;-80
2022/08/16 10:00:21;;;;;;;8.00;7.20;;;;;;;;;;5076293;28;20028;-80
2022/08/16 10:02:47;;;;;;;8.45;7.75;;;;;;;;;;5089934;28;20047;-80
2022/08/16 10:05:13;;;;;;;7.40;6.70;;;;;;;;;;5083407;28;20040;-79
2022/08/16 10:07:39;;;;;;;8.55;7.50;;;;;;;;;;5095997;28;20034;-79
2022/08/16 10:10:05;;;;;;;9.52;8.73;;;;;;;;;;5081836;28;20036;-80
2022/08/16 10:15:19;;;;;;;8.55;7.85;;;;;;;;;;5076153;28;20563;-79
2022/08/16 10:17:46;;;;;;;12.40;11.27;;;;;;;;;;5075577;28;20035;-81
2022/08/16 10:20:13;;;;;;;9.00;8.18;;;;;;;;;;5081403;28;20016;-81
2022/08/16 10:22:40;;;;;;;7.28;6.38;;;;;;;;;;5095182;28;20866;-81
2022/08/16 10:25:06;;;;;;;7.28;6.68;;;;;;;;;;5094161;28;20399;-81
2022/08/16 10:27:34;;;;;;;8.75;7.90;;;;;;;;;;5090851;28;20482;-80
2022/08/16 10:30:00;;;;;;;16.98;11.00;;;;;;;;;;5096211;28;20028;-80
2022/08/16 10:32:27;;;;;;;9.52;8.20;;;;;;;;;;5089038;28;20063;-81
2022/08/16 10:34:53;;;;;;;9.32;8.35;;;;;;;;;;5082431;28;20059;-80
2022/08/16 10:37:19;;;;;;;8.73;7.82;;;;;;;;;;5075265;28;20077;-81
2022/08/16 10:39:45;;;;;;;12.27;10.93;;;;;;;;;;5083428;28;20399;-81
2022/08/16 10:42:11;;;;;;;10.48;8.85;;;;;;;;;;5083114;28;20031;-81
2022/08/16 10:44:37;;;;;;;9.55;8.15;;;;;;;;;;5091546;28;20038;-82
2022/08/16 10:47:04;;;;;;;8.20;7.40;;;;;;;;;;5083690;28;20055;-81
2022/08/16 10:49:30;;;;;;;9.38;8.38;;;;;;;;;;5088404;28;20032;-82
2022/08/16 10:51:56;;;;;;;16.52;13.75;;;;;;;;;;5081771;28;20443;-81
2022/08/16 10:54:22;;;;;;;17.30;12.07;;;;;;;;;;5079472;28;20033;-81
2022/08/16 10:56:49;;;;;;;11.48;9.20;;;;;;;;;;5086284;28;20031;-83
2022/08/16 10:59:15;;;;;;;12.43;10.88;;;;;;;;;;5088177;28;20032;-81
2022/08/16 11:01:41;;;;;;;9.30;8.43;;;;;;;;;;5094780;28;20030;-81
2022/08/16 11:04:08;;;;;;;8.68;7.88;;;;;;;;;;5086123;28;20113;-82
2022/08/16 11:06:34;;;;;;;8.32;7.55;;;;;;;;;;5084808;28;20517;-82
2022/08/16 11:09:00;;;;;;;8.07;7.40;;;;;;;;;;5085351;28;20031;-84
2022/08/16 11:11:26;;;;;;;9.30;8.40;;;;;;;;;;5078482;28;20071;-79
2022/08/16 11:13:52;;;;;;;10.80;9.75;;;;;;;;;;5086273;28;20054;-78
2022/08/16 11:16:19;;;;;;;6.72;6.20;;;;;;;;;;5091294;28;20542;-80
2022/08/16 11:18:46;;;;;;;7.15;6.45;;;;;;;;;;5078786;28;20039;-81
2022/08/16 11:21:13;;;;;;;4.88;4.38;;;;;;;;;;5074240;28;20028;-79
2022/08/16 11:23:40;;;;;;;10.95;9.95;;;;;;;;;;5072895;28;20036;-80
2022/08/16 11:26:06;;;;;;;14.32;12.90;;;;;;;;;;5074614;28;20040;-80
2022/08/16 11:28:33;;;;;;;10.60;9.60;;;;;;;;;;5074564;28;20034;-81
2022/08/16 11:30:59;;;;;;;7.07;6.38;;;;;;;;;;5074237;28;20032;-80
2022/08/16 11:33:26;;;;;;;6.68;6.05;;;;;;;;;;5090084;28;20444;-80
2022/08/16 11:35:52;;;;;;;7.63;6.88;;;;;;;;;;5091985;28;20056;-80
2022/08/16 11:38:19;;;;;;;6.82;6.18;;;;;;;;;;5094424;28;20107;-80
2022/08/16 11:40:49;;;;;;;10.10;9.10;;;;;;;;;;5105239;28;20505;-80
2022/08/16 11:43:16;;;;;;;7.43;6.72;;;;;;;;;;5114274;28;20019;-81
2022/08/16 11:45:42;;;;;;;9.43;7.30;;;;;;;;;;5099756;28;20020;-81
2022/08/16 11:48:08;;;;;;;7.80;6.97;;;;;;;;;;5089413;28;20092;-82
2022/08/16 11:50:35;;;;;;;7.45;6.50;;;;;;;;;;5113288;28;20041;-82
2022/08/16 11:53:01;;;;;;;7.90;7.28;;;;;;;;;;5113803;28;20118;-80
2022/08/16 11:55:28;;;;;;;7.97;7.18;;;;;;;;;;5097114;28;20032;-80
2022/08/16 11:57:54;;;;;;;7.38;6.68;;;;;;;;;;5081038;28;20528;-79
2022/08/16 12:00:20;;;;;;;6.63;6.03;;;;;;;;;;5073526;28;20472;-80
2022/08/16 12:02:46;;;;;;;8.93;5.25;;;;;;;;;;5078359;28;20032;-80
2022/08/16 12:05:14;;;;;;;6.72;4.88;;;;;;;;;;5077141;28;20100;-80
2022/08/16 12:07:41;;;;;;;7.65;6.95;;;;;;;;;;5076923;28;20035;-80
2022/08/16 12:10:13;;;;;;;7.65;5.15;;;;;;;;;;5079123;28;20032;-79
2022/08/16 12:12:40;;;;;;;5.97;5.38;;;;;;;;;;5078091;28;20036;-80
2022/08/16 12:15:06;;;;;;;5.85;4.88;;;;;;;;;;5091352;28;20544;-81
2022/08/16 12:17:33;;;;;;;5.38;4.75;;;;;;;;;;5094783;28;20409;-80
2022/08/16 12:20:15;;;;;;;5.63;5.13;;;;;;;;;;5090418;28;20024;-81
2022/08/16 12:22:41;;;;;;;5.88;5.28;;;;;;;;;;5101274;28;20577;-80
2022/08/16 12:25:10;;;;;;;5.70;5.20;;;;;;;;;;5098726;28;20028;-79
2022/08/16 12:27:37;;;;;;;5.80;5.30;;;;;;;;;;5097201;28;20011;-80
2022/08/16 12:30:04;;;;;;;6.07;5.43;;;;;;;;;;5073885;28;20028;-80
2022/08/16 12:32:30;;;;;;;7.65;4.75;;;;;;;;;;5073007;28;20454;-79
2022/08/16 12:34:56;;;;;;;10.90;9.63;;;;;;;;;;5098196;28;20432;-80
2022/08/16 12:37:23;;;;;;;8.48;7.72;;;;;;;;;;5099650;28;20031;-79
2022/08/16 12:39:49;;;;;;;8.13;6.50;;;;;;;;;;5082210;28;20024;-81
2022/08/16 12:42:18;;;;;;;6.40;5.80;;;;;;;;;;5100639;28;20104;-79
2022/08/16 12:44:44;;;;;;;6.35;5.00;;;;;;;;;;5092675;28;20036;-78
2022/08/16 12:49:55;;;;;;;5.57;5.00;;;;;;;;;;5084904;28;20063;-81
2022/08/16 12:52:21;;;;;;;5.80;4.97;;;;;;;;;;5074442;28;20036;-80
2022/08/16 12:54:47;;;;;;;6.00;4.55;;;;;;;;;;5076969;28;20029;-79
2022/08/16 12:57:14;;;;;;;5.85;4.22;;;;;;;;;;5075317;28;20029;-83
2022/08/16 12:59:41;;;;;;;4.55;4.00;;;;;;;;;;5078535;28;20021;-83
2022/08/16 13:02:08;;;;;;;6.25;5.47;;;;;;;;;;5076866;28;20038;-81
2022/08/16 13:04:36;;;;;;;5.65;5.15;;;;;;;;;;5077433;28;20036;-82
2022/08/16 13:07:03;;;;;;;6.30;4.95;;;;;;;;;;5072496;28;20036;-82
2022/08/16 13:09:31;;;;;;;6.05;5.40;;;;;;;;;;5090413;28;20039;-83
2022/08/16 13:12:01;;;;;;;5.30;4.55;;;;;;;;;;5092830;28;20498;-83
2022/08/16 13:14:28;;;;;;;4.72;4.22;;;;;;;;;;5094288;28;20042;-84
2022/08/16 13:16:55;;;;;;;4.93;4.53;;;;;;;;;;5103520;28;20502;-84
2022/08/16 13:19:21;;;;;;;5.57;4.78;;;;;;;;;;5098736;28;20648;-82
2022/08/16 13:21:47;;;;;;;5.57;4.60;;;;;;;;;;5102719;28;20032;-82
2022/08/16 13:24:13;;;;;;;7.18;5.82;;;;;;;;;;5099802;28;20016;-81
2022/08/16 13:26:39;;;;;;;6.85;6.15;;;;;;;;;;5099930;28;20032;-81
2022/08/16 13:29:05;;;;;;;6.75;5.00;;;;;;;;;;5110190;28;20047;-83
2022/08/16 13:31:31;;;;;;;5.63;5.00;;;;;;;;;;5112506;28;20049;-82
2022/08/16 13:33:58;;;;;;;6.60;5.53;;;;;;;;;;5112383;28;20058;-80
2022/08/16 13:36:24;;;;;;;5.72;4.88;;;;;;;;;;5112915;28;20088;-81
2022/08/16 13:38:50;;;;;;;6.70;4.45;;;;;;;;;;5112794;28;20031;-81
2022/08/16 13:41:18;;;;;;;4.60;3.88;;;;;;;;;;5112766;28;20078;-79
2022/08/16 13:43:44;;;;;;;5.45;4.32;;;;;;;;;;5112824;28;20088;-84
2022/08/16 13:46:10;;;;;;;5.32;4.82;;;;;;;;;;5111620;28;20034;-80
2022/08/16 13:48:37;;;;;;;5.90;4.22;;;;;;;;;;5112546;28;20457;-80
2022/08/16 13:51:03;;;;;;;7.03;4.75;;;;;;;;;;5112893;28;20321;-80
2022/08/16 13:53:30;;;;;;;4.88;3.60;;;;;;;;;;5112768;28;20078;-81
2022/08/16 13:55:56;;;;;;;4.43;3.92;;;;;;;;;;5112590;28;20394;-81
2022/08/16 13:58:22;;;;;;;6.28;4.47;;;;;;;;;;5111496;28;20418;-80
2022/08/16 14:00:49;;;;;;;4.72;3.90;;;;;;;;;;5112393;28;20479;-80
2022/08/16 14:03:15;;;;;;;7.30;4.00;;;;;;;;;;5102427;28;20024;-80
2022/08/16 14:05:41;;;;;;;4.70;3.47;;;;;;;;;;5089682;28;20061;-81
2022/08/16 14:08:07;;;;;;;7.38;4.30;;;;;;;;;;5092386;28;20074;-80
2022/08/16 14:10:34;;;;;;;6.57;4.13;;;;;;;;;;5092007;28;20459;-80
2022/08/16 14:13:00;;;;;;;4.32;3.65;;;;;;;;;;5092102;28;20063;-80
2022/08/16 14:15:30;;;;;;;4.32;3.92;;;;;;;;;;5092278;28;20067;-81
2022/08/16 14:17:56;;;;;;;5.53;4.25;;;;;;;;;;5091667;28;20024;-80
2022/08/16 14:20:25;;;;;;;7.07;3.75;;;;;;;;;;5072891;28;20028;-80
2022/08/16 14:22:51;;;;;;;5.30;4.35;;;;;;;;;;5071776;28;20025;-81
2022/08/16 14:25:19;;;;;;;5.30;3.70;;;;;;;;;;5072145;28;20095;-81
2022/08/16 14:27:45;;;;;;;3.55;3.15;;;;;;;;;;5071594;28;20027;-80
2022/08/16 14:30:13;;;;;;;4.57;3.42;;;;;;;;;;5071838;28;20111;-80